Sacramento-Mather, California
Current Conditions -  °F | °C
As of 11:45 AM on Thursday 27 Nov 2014 (Local Time) from KMHR Reporting Station
Broken Clouds Broken Clouds  
Wind Chill: 64°   Ceiling: 15000
Heat Index: 64°   Visibility: 10mi
Dew Point: 48°   Wind: 0mph
Humidity: 56%   Direction: NA
Pressure: 30.17"   Gusts: NA
Location:  38.55°N, 121.3°W
Report Text: KMHR 271945Z 00000KT 10SM BKN150 18/09 A3017
Loading
Personal Weather Stations






























Interactive Weather Map New forecast layout! Learn more

10-Day Weather Forecast

Advertisements
Track Severe Weather on mobile